sensor_id;sensor_type;location;lat;lon;timestamp;P1;durP1;ratioP1;P2;durP2;ratioP2
21661;SDS011;10992;48.170;8.596;2023-06-26T00:00:53;7.43;;;6.25;;
21661;SDS011;10992;48.170;8.596;2023-06-26T00:03:20;8.48;;;6.68;;
21661;SDS011;10992;48.170;8.596;2023-06-26T00:05:47;7.15;;;6.30;;
21661;SDS011;10992;48.170;8.596;2023-06-26T00:08:13;8.48;;;6.80;;
21661;SDS011;10992;48.170;8.596;2023-06-26T00:10:40;7.10;;;6.22;;
21661;SDS011;10992;48.170;8.596;2023-06-26T00:13:07;7.13;;;6.40;;
21661;SDS011;10992;48.170;8.596;2023-06-26T00:15:34;6.72;;;5.88;;
21661;SDS011;10992;48.170;8.596;2023-06-26T00:18:01;9.27;;;6.15;;
21661;SDS011;10992;48.170;8.596;2023-06-26T00:20:29;8.40;;;6.40;;
21661;SDS011;10992;48.170;8.596;2023-06-26T00:23:00;8.18;;;6.63;;
21661;SDS011;10992;48.170;8.596;2023-06-26T00:25:27;7.93;;;6.32;;
21661;SDS011;10992;48.170;8.596;2023-06-26T00:27:54;7.97;;;6.55;;
21661;SDS011;10992;48.170;8.596;2023-06-26T00:30:20;8.40;;;6.57;;
21661;SDS011;10992;48.170;8.596;2023-06-26T00:32:48;8.35;;;7.15;;
21661;SDS011;10992;48.170;8.596;2023-06-26T00:35:15;7.85;;;6.32;;
21661;SDS011;10992;48.170;8.596;2023-06-26T00:37:43;8.50;;;6.88;;
21661;SDS011;10992;48.170;8.596;2023-06-26T00:40:10;7.65;;;6.68;;
21661;SDS011;10992;48.170;8.596;2023-06-26T00:42:38;7.95;;;6.63;;
21661;SDS011;10992;48.170;8.596;2023-06-26T00:45:05;9.13;;;7.05;;
21661;SDS011;10992;48.170;8.596;2023-06-26T00:47:32;8.27;;;7.40;;
21661;SDS011;10992;48.170;8.596;2023-06-26T00:49:59;7.53;;;6.68;;
21661;SDS011;10992;48.170;8.596;2023-06-26T00:52:27;8.45;;;6.78;;
21661;SDS011;10992;48.170;8.596;2023-06-26T00:54:53;8.02;;;6.53;;
21661;SDS011;10992;48.170;8.596;2023-06-26T00:57:22;9.70;;;7.45;;
21661;SDS011;10992;48.170;8.596;2023-06-26T00:59:49;7.60;;;6.80;;
21661;SDS011;10992;48.170;8.596;2023-06-26T01:02:15;10.45;;;7.72;;
21661;SDS011;10992;48.170;8.596;2023-06-26T01:04:44;9.18;;;7.05;;
21661;SDS011;10992;48.170;8.596;2023-06-26T01:07:13;8.25;;;7.38;;
21661;SDS011;10992;48.170;8.596;2023-06-26T01:09:41;10.15;;;7.50;;
21661;SDS011;10992;48.170;8.596;2023-06-26T01:12:08;9.00;;;7.28;;
21661;SDS011;10992;48.170;8.596;2023-06-26T01:14:36;11.57;;;8.02;;
21661;SDS011;10992;48.170;8.596;2023-06-26T01:17:03;9.07;;;8.15;;
21661;SDS011;10992;48.170;8.596;2023-06-26T01:19:30;9.75;;;7.65;;
21661;SDS011;10992;48.170;8.596;2023-06-26T01:22:02;9.40;;;7.80;;
21661;SDS011;10992;48.170;8.596;2023-06-26T01:25:02;9.10;;;7.88;;
21661;SDS011;10992;48.170;8.596;2023-06-26T01:27:41;10.77;;;7.90;;
21661;SDS011;10992;48.170;8.596;2023-06-26T01:30:09;9.90;;;8.13;;
21661;SDS011;10992;48.170;8.596;2023-06-26T01:32:37;10.27;;;8.25;;
21661;SDS011;10992;48.170;8.596;2023-06-26T01:35:06;9.63;;;8.00;;
21661;SDS011;10992;48.170;8.596;2023-06-26T01:37:34;9.50;;;7.50;;
21661;SDS011;10992;48.170;8.596;2023-06-26T01:40:02;8.77;;;7.03;;
21661;SDS011;10992;48.170;8.596;2023-06-26T01:42:32;9.55;;;7.80;;
21661;SDS011;10992;48.170;8.596;2023-06-26T01:45:06;8.55;;;7.63;;
21661;SDS011;10992;48.170;8.596;2023-06-26T01:47:37;9.35;;;7.72;;
21661;SDS011;10992;48.170;8.596;2023-06-26T01:50:11;9.20;;;8.10;;
21661;SDS011;10992;48.170;8.596;2023-06-26T01:52:52;9.73;;;7.93;;
21661;SDS011;10992;48.170;8.596;2023-06-26T01:58:15;9.23;;;8.02;;
21661;SDS011;10992;48.170;8.596;2023-06-26T02:00:43;10.60;;;8.07;;
21661;SDS011;10992;48.170;8.596;2023-06-26T02:03:10;10.93;;;8.15;;
21661;SDS011;10992;48.170;8.596;2023-06-26T02:05:38;9.73;;;8.73;;
21661;SDS011;10992;48.170;8.596;2023-06-26T02:08:05;9.55;;;7.82;;
21661;SDS011;10992;48.170;8.596;2023-06-26T02:10:32;11.07;;;7.85;;
21661;SDS011;10992;48.170;8.596;2023-06-26T02:12:59;10.52;;;8.43;;
21661;SDS011;10992;48.170;8.596;2023-06-26T02:15:27;9.73;;;8.52;;
21661;SDS011;10992;48.170;8.596;2023-06-26T02:17:53;10.27;;;8.00;;
21661;SDS011;10992;48.170;8.596;2023-06-26T02:20:20;13.30;;;8.60;;
21661;SDS011;10992;48.170;8.596;2023-06-26T02:22:47;10.00;;;8.23;;
21661;SDS011;10992;48.170;8.596;2023-06-26T02:25:14;9.55;;;8.18;;
21661;SDS011;10992;48.170;8.596;2023-06-26T02:27:41;11.07;;;7.85;;
21661;SDS011;10992;48.170;8.596;2023-06-26T02:30:08;9.57;;;7.68;;
21661;SDS011;10992;48.170;8.596;2023-06-26T02:32:36;9.25;;;8.23;;
21661;SDS011;10992;48.170;8.596;2023-06-26T02:35:03;10.02;;;8.23;;
21661;SDS011;10992;48.170;8.596;2023-06-26T02:37:30;9.88;;;8.05;;
21661;SDS011;10992;48.170;8.596;2023-06-26T02:39:58;8.65;;;7.50;;
21661;SDS011;10992;48.170;8.596;2023-06-26T02:42:26;8.93;;;7.75;;
21661;SDS011;10992;48.170;8.596;2023-06-26T02:44:52;10.98;;;8.00;;
21661;SDS011;10992;48.170;8.596;2023-06-26T02:47:20;10.07;;;7.22;;
21661;SDS011;10992;48.170;8.596;2023-06-26T02:49:47;9.27;;;6.97;;
21661;SDS011;10992;48.170;8.596;2023-06-26T02:52:14;9.35;;;7.28;;
21661;SDS011;10992;48.170;8.596;2023-06-26T02:54:41;10.48;;;7.20;;
21661;SDS011;10992;48.170;8.596;2023-06-26T02:57:09;11.02;;;8.13;;
21661;SDS011;10992;48.170;8.596;2023-06-26T02:59:36;9.07;;;7.43;;
21661;SDS011;10992;48.170;8.596;2023-06-26T03:02:03;8.70;;;7.00;;
21661;SDS011;10992;48.170;8.596;2023-06-26T03:04:38;9.02;;;7.13;;
21661;SDS011;10992;48.170;8.596;2023-06-26T03:07:10;7.60;;;6.80;;
21661;SDS011;10992;48.170;8.596;2023-06-26T03:09:38;8.88;;;7.45;;
21661;SDS011;10992;48.170;8.596;2023-06-26T03:12:06;11.75;;;7.82;;
21661;SDS011;10992;48.170;8.596;2023-06-26T03:14:33;9.93;;;7.70;;
21661;SDS011;10992;48.170;8.596;2023-06-26T03:17:00;9.00;;;7.63;;
21661;SDS011;10992;48.170;8.596;2023-06-26T03:19:31;9.60;;;6.97;;
21661;SDS011;10992;48.170;8.596;2023-06-26T03:22:19;7.88;;;6.63;;
21661;SDS011;10992;48.170;8.596;2023-06-26T03:24:46;8.60;;;7.28;;
21661;SDS011;10992;48.170;8.596;2023-06-26T03:27:13;10.10;;;7.53;;
21661;SDS011;10992;48.170;8.596;2023-06-26T03:29:44;8.68;;;7.20;;
21661;SDS011;10992;48.170;8.596;2023-06-26T03:32:11;8.40;;;7.60;;
21661;SDS011;10992;48.170;8.596;2023-06-26T03:34:38;8.02;;;6.97;;
21661;SDS011;10992;48.170;8.596;2023-06-26T03:37:05;10.05;;;7.63;;
21661;SDS011;10992;48.170;8.596;2023-06-26T03:39:32;8.95;;;7.25;;
21661;SDS011;10992;48.170;8.596;2023-06-26T03:41:59;10.52;;;6.93;;
21661;SDS011;10992;48.170;8.596;2023-06-26T03:44:27;8.13;;;7.03;;
21661;SDS011;10992;48.170;8.596;2023-06-26T03:46:55;9.48;;;6.78;;
21661;SDS011;10992;48.170;8.596;2023-06-26T03:49:22;8.50;;;7.05;;
21661;SDS011;10992;48.170;8.596;2023-06-26T03:51:51;8.48;;;6.55;;
21661;SDS011;10992;48.170;8.596;2023-06-26T03:54:17;9.63;;;6.63;;
21661;SDS011;10992;48.170;8.596;2023-06-26T03:56:45;9.48;;;7.38;;
21661;SDS011;10992;48.170;8.596;2023-06-26T03:59:12;8.70;;;7.05;;
21661;SDS011;10992;48.170;8.596;2023-06-26T04:01:39;8.43;;;7.15;;
21661;SDS011;10992;48.170;8.596;2023-06-26T04:04:06;10.43;;;7.07;;
21661;SDS011;10992;48.170;8.596;2023-06-26T04:06:33;9.27;;;7.22;;
21661;SDS011;10992;48.170;8.596;2023-06-26T04:09:00;9.43;;;6.85;;
21661;SDS011;10992;48.170;8.596;2023-06-26T04:11:27;8.88;;;7.38;;
21661;SDS011;10992;48.170;8.596;2023-06-26T04:13:54;7.70;;;6.55;;
21661;SDS011;10992;48.170;8.596;2023-06-26T04:16:21;10.57;;;7.35;;
21661;SDS011;10992;48.170;8.596;2023-06-26T04:18:51;8.07;;;6.93;;
21661;SDS011;10992;48.170;8.596;2023-06-26T04:21:19;8.80;;;7.72;;
21661;SDS011;10992;48.170;8.596;2023-06-26T04:23:46;7.57;;;6.72;;
21661;SDS011;10992;48.170;8.596;2023-06-26T04:26:14;8.70;;;7.18;;
21661;SDS011;10992;48.170;8.596;2023-06-26T04:28:41;7.93;;;6.55;;
21661;SDS011;10992;48.170;8.596;2023-06-26T04:31:09;7.90;;;6.72;;
21661;SDS011;10992;48.170;8.596;2023-06-26T04:33:36;8.05;;;6.60;;
21661;SDS011;10992;48.170;8.596;2023-06-26T04:36:08;8.48;;;7.20;;
21661;SDS011;10992;48.170;8.596;2023-06-26T04:38:35;8.48;;;7.03;;
21661;SDS011;10992;48.170;8.596;2023-06-26T04:41:02;8.00;;;6.15;;
21661;SDS011;10992;48.170;8.596;2023-06-26T04:43:29;6.95;;;5.93;;
21661;SDS011;10992;48.170;8.596;2023-06-26T04:45:56;9.68;;;6.13;;
21661;SDS011;10992;48.170;8.596;2023-06-26T04:48:23;7.20;;;5.80;;
21661;SDS011;10992;48.170;8.596;2023-06-26T04:50:50;7.28;;;5.95;;
21661;SDS011;10992;48.170;8.596;2023-06-26T04:53:21;8.15;;;6.72;;
21661;SDS011;10992;48.170;8.596;2023-06-26T04:55:50;8.02;;;6.03;;
21661;SDS011;10992;48.170;8.596;2023-06-26T04:58:17;8.75;;;6.03;;
21661;SDS011;10992;48.170;8.596;2023-06-26T05:00:44;7.18;;;5.38;;
21661;SDS011;10992;48.170;8.596;2023-06-26T05:03:11;7.45;;;6.07;;
21661;SDS011;10992;48.170;8.596;2023-06-26T05:05:40;7.47;;;6.13;;
21661;SDS011;10992;48.170;8.596;2023-06-26T05:08:14;6.70;;;5.97;;
21661;SDS011;10992;48.170;8.596;2023-06-26T05:10:41;7.82;;;5.70;;
21661;SDS011;10992;48.170;8.596;2023-06-26T05:13:09;7.03;;;5.28;;
21661;SDS011;10992;48.170;8.596;2023-06-26T05:15:36;7.40;;;5.63;;
21661;SDS011;10992;48.170;8.596;2023-06-26T05:18:03;6.10;;;5.50;;
21661;SDS011;10992;48.170;8.596;2023-06-26T05:20:30;7.75;;;5.78;;
21661;SDS011;10992;48.170;8.596;2023-06-26T05:22:58;6.35;;;5.40;;
21661;SDS011;10992;48.170;8.596;2023-06-26T05:25:24;7.15;;;5.80;;
21661;SDS011;10992;48.170;8.596;2023-06-26T05:27:53;6.45;;;5.70;;
21661;SDS011;10992;48.170;8.596;2023-06-26T05:30:20;6.50;;;5.13;;
21661;SDS011;10992;48.170;8.596;2023-06-26T05:32:47;6.35;;;5.63;;
21661;SDS011;10992;48.170;8.596;2023-06-26T05:35:15;7.22;;;5.45;;
21661;SDS011;10992;48.170;8.596;2023-06-26T05:37:44;6.40;;;5.45;;
21661;SDS011;10992;48.170;8.596;2023-06-26T05:40:11;6.43;;;5.20;;
21661;SDS011;10992;48.170;8.596;2023-06-26T05:42:39;7.68;;;5.68;;
21661;SDS011;10992;48.170;8.596;2023-06-26T05:45:06;7.35;;;5.55;;
21661;SDS011;10992;48.170;8.596;2023-06-26T05:47:33;6.90;;;5.45;;
21661;SDS011;10992;48.170;8.596;2023-06-26T05:50:01;6.25;;;5.00;;
21661;SDS011;10992;48.170;8.596;2023-06-26T05:52:29;7.13;;;4.93;;
21661;SDS011;10992;48.170;8.596;2023-06-26T05:54:56;7.93;;;5.38;;
21661;SDS011;10992;48.170;8.596;2023-06-26T05:57:29;8.55;;;5.68;;
21661;SDS011;10992;48.170;8.596;2023-06-26T05:59:57;6.47;;;5.20;;
21661;SDS011;10992;48.170;8.596;2023-06-26T06:02:24;7.13;;;5.13;;
21661;SDS011;10992;48.170;8.596;2023-06-26T06:04:51;7.18;;;4.43;;
21661;SDS011;10992;48.170;8.596;2023-06-26T06:07:18;8.50;;;5.07;;
21661;SDS011;10992;48.170;8.596;2023-06-26T06:09:45;7.03;;;4.90;;
21661;SDS011;10992;48.170;8.596;2023-06-26T06:12:12;5.70;;;5.10;;
21661;SDS011;10992;48.170;8.596;2023-06-26T06:14:39;5.68;;;4.57;;
21661;SDS011;10992;48.170;8.596;2023-06-26T06:17:06;7.57;;;4.50;;
21661;SDS011;10992;48.170;8.596;2023-06-26T06:19:33;6.18;;;5.45;;
21661;SDS011;10992;48.170;8.596;2023-06-26T06:22:00;7.38;;;5.25;;
21661;SDS011;10992;48.170;8.596;2023-06-26T06:24:27;5.30;;;4.80;;
21661;SDS011;10992;48.170;8.596;2023-06-26T06:26:53;6.60;;;5.20;;
21661;SDS011;10992;48.170;8.596;2023-06-26T06:29:20;7.28;;;4.85;;
21661;SDS011;10992;48.170;8.596;2023-06-26T06:31:47;7.22;;;5.32;;
21661;SDS011;10992;48.170;8.596;2023-06-26T06:34:14;6.15;;;5.10;;
21661;SDS011;10992;48.170;8.596;2023-06-26T06:36:41;6.38;;;5.25;;
21661;SDS011;10992;48.170;8.596;2023-06-26T06:39:08;7.80;;;4.63;;
21661;SDS011;10992;48.170;8.596;2023-06-26T06:41:35;8.57;;;5.43;;
21661;SDS011;10992;48.170;8.596;2023-06-26T06:44:04;5.57;;;4.60;;
21661;SDS011;10992;48.170;8.596;2023-06-26T06:46:31;5.50;;;4.60;;
21661;SDS011;10992;48.170;8.596;2023-06-26T06:48:58;7.38;;;4.75;;
21661;SDS011;10992;48.170;8.596;2023-06-26T06:51:26;7.38;;;4.82;;
21661;SDS011;10992;48.170;8.596;2023-06-26T06:53:53;6.53;;;4.38;;
21661;SDS011;10992;48.170;8.596;2023-06-26T06:56:20;6.15;;;4.50;;
21661;SDS011;10992;48.170;8.596;2023-06-26T06:58:47;6.15;;;5.03;;
21661;SDS011;10992;48.170;8.596;2023-06-26T07:01:14;5.55;;;4.90;;
21661;SDS011;10992;48.170;8.596;2023-06-26T07:03:41;5.35;;;4.60;;
21661;SDS011;10992;48.170;8.596;2023-06-26T07:06:08;5.72;;;4.68;;
21661;SDS011;10992;48.170;8.596;2023-06-26T07:08:35;8.57;;;4.90;;
21661;SDS011;10992;48.170;8.596;2023-06-26T07:11:02;8.32;;;5.10;;
21661;SDS011;10992;48.170;8.596;2023-06-26T07:13:29;9.20;;;4.93;;
21661;SDS011;10992;48.170;8.596;2023-06-26T07:15:56;7.07;;;5.05;;
21661;SDS011;10992;48.170;8.596;2023-06-26T07:18:23;6.63;;;5.00;;
21661;SDS011;10992;48.170;8.596;2023-06-26T07:20:50;7.78;;;4.95;;
21661;SDS011;10992;48.170;8.596;2023-06-26T07:23:17;6.35;;;5.05;;
21661;SDS011;10992;48.170;8.596;2023-06-26T07:25:44;5.43;;;4.90;;
21661;SDS011;10992;48.170;8.596;2023-06-26T07:28:11;5.47;;;4.60;;
21661;SDS011;10992;48.170;8.596;2023-06-26T07:30:38;6.32;;;4.68;;
21661;SDS011;10992;48.170;8.596;2023-06-26T07:33:06;4.75;;;4.28;;
21661;SDS011;10992;48.170;8.596;2023-06-26T07:35:33;7.30;;;4.57;;
21661;SDS011;10992;48.170;8.596;2023-06-26T07:38:00;5.93;;;4.75;;
21661;SDS011;10992;48.170;8.596;2023-06-26T07:40:27;5.80;;;4.40;;
21661;SDS011;10992;48.170;8.596;2023-06-26T07:42:54;6.18;;;4.63;;
21661;SDS011;10992;48.170;8.596;2023-06-26T07:45:21;4.72;;;4.28;;
21661;SDS011;10992;48.170;8.596;2023-06-26T07:47:51;5.60;;;4.40;;
21661;SDS011;10992;48.170;8.596;2023-06-26T07:50:18;5.78;;;4.65;;
21661;SDS011;10992;48.170;8.596;2023-06-26T07:52:48;5.90;;;5.00;;
21661;SDS011;10992;48.170;8.596;2023-06-26T07:55:16;5.15;;;4.65;;
21661;SDS011;10992;48.170;8.596;2023-06-26T07:57:45;5.95;;;4.55;;
21661;SDS011;10992;48.170;8.596;2023-06-26T08:00:31;5.72;;;4.20;;
21661;SDS011;10992;48.170;8.596;2023-06-26T08:02:58;5.28;;;3.70;;
21661;SDS011;10992;48.170;8.596;2023-06-26T08:05:25;5.80;;;3.80;;
21661;SDS011;10992;48.170;8.596;2023-06-26T08:07:52;4.10;;;3.58;;
21661;SDS011;10992;48.170;8.596;2023-06-26T08:10:19;4.25;;;3.83;;
21661;SDS011;10992;48.170;8.596;2023-06-26T08:12:46;4.28;;;3.88;;
21661;SDS011;10992;48.170;8.596;2023-06-26T08:15:15;6.30;;;3.70;;
21661;SDS011;10992;48.170;8.596;2023-06-26T08:17:41;6.15;;;3.97;;
21661;SDS011;10992;48.170;8.596;2023-06-26T08:20:09;4.38;;;3.97;;
21661;SDS011;10992;48.170;8.596;2023-06-26T08:22:37;6.38;;;3.60;;
21661;SDS011;10992;48.170;8.596;2023-06-26T08:25:04;4.85;;;4.20;;
21661;SDS011;10992;48.170;8.596;2023-06-26T08:27:32;4.47;;;3.40;;
21661;SDS011;10992;48.170;8.596;2023-06-26T08:29:59;4.57;;;4.18;;
21661;SDS011;10992;48.170;8.596;2023-06-26T08:32:26;4.15;;;3.75;;
21661;SDS011;10992;48.170;8.596;2023-06-26T08:34:52;5.63;;;4.00;;
21661;SDS011;10992;48.170;8.596;2023-06-26T08:37:19;6.30;;;3.90;;
21661;SDS011;10992;48.170;8.596;2023-06-26T08:39:47;6.65;;;3.97;;
21661;SDS011;10992;48.170;8.596;2023-06-26T08:42:14;4.35;;;3.95;;
21661;SDS011;10992;48.170;8.596;2023-06-26T08:44:41;5.18;;;3.60;;
21661;SDS011;10992;48.170;8.596;2023-06-26T08:47:27;5.28;;;3.97;;
21661;SDS011;10992;48.170;8.596;2023-06-26T08:50:12;4.45;;;3.90;;
21661;SDS011;10992;48.170;8.596;2023-06-26T08:55:10;4.72;;;4.03;;
21661;SDS011;10992;48.170;8.596;2023-06-26T08:57:41;4.07;;;3.67;;
21661;SDS011;10992;48.170;8.596;2023-06-26T09:00:10;5.32;;;3.90;;
21661;SDS011;10992;48.170;8.596;2023-06-26T09:02:37;4.78;;;4.00;;
21661;SDS011;10992;48.170;8.596;2023-06-26T09:05:07;4.55;;;3.67;;
21661;SDS011;10992;48.170;8.596;2023-06-26T09:07:34;4.28;;;3.70;;
21661;SDS011;10992;48.170;8.596;2023-06-26T09:10:01;4.88;;;4.00;;
21661;SDS011;10992;48.170;8.596;2023-06-26T09:12:28;4.85;;;4.35;;
21661;SDS011;10992;48.170;8.596;2023-06-26T09:14:55;5.43;;;4.90;;
21661;SDS011;10992;48.170;8.596;2023-06-26T09:17:24;5.32;;;4.20;;
21661;SDS011;10992;48.170;8.596;2023-06-26T09:19:55;6.05;;;4.20;;
21661;SDS011;10992;48.170;8.596;2023-06-26T09:22:22;4.45;;;4.05;;
21661;SDS011;10992;48.170;8.596;2023-06-26T09:24:49;5.13;;;4.00;;
21661;SDS011;10992;48.170;8.596;2023-06-26T09:27:16;4.40;;;4.00;;
21661;SDS011;10992;48.170;8.596;2023-06-26T09:29:47;4.50;;;4.10;;
21661;SDS011;10992;48.170;8.596;2023-06-26T09:32:15;5.13;;;3.80;;
21661;SDS011;10992;48.170;8.596;2023-06-26T09:34:42;5.80;;;4.00;;
21661;SDS011;10992;48.170;8.596;2023-06-26T09:37:11;6.40;;;3.88;;
21661;SDS011;10992;48.170;8.596;2023-06-26T09:39:40;5.32;;;4.43;;
21661;SDS011;10992;48.170;8.596;2023-06-26T09:42:07;4.32;;;3.78;;
21661;SDS011;10992;48.170;8.596;2023-06-26T09:44:33;6.32;;;4.30;;
21661;SDS011;10992;48.170;8.596;2023-06-26T09:47:01;4.93;;;4.13;;
21661;SDS011;10992;48.170;8.596;2023-06-26T09:49:30;4.65;;;3.65;;
21661;SDS011;10992;48.170;8.596;2023-06-26T09:51:59;4.65;;;3.80;;
21661;SDS011;10992;48.170;8.596;2023-06-26T09:54:27;5.53;;;4.45;;
21661;SDS011;10992;48.170;8.596;2023-06-26T09:57:06;6.18;;;4.60;;
21661;SDS011;10992;48.170;8.596;2023-06-26T09:59:34;5.43;;;4.93;;
21661;SDS011;10992;48.170;8.596;2023-06-26T10:02:02;4.55;;;4.15;;
21661;SDS011;10992;48.170;8.596;2023-06-26T10:04:29;6.50;;;4.82;;
21661;SDS011;10992;48.170;8.596;2023-06-26T10:06:56;8.50;;;4.40;;
21661;SDS011;10992;48.170;8.596;2023-06-26T10:09:24;5.00;;;4.55;;
21661;SDS011;10992;48.170;8.596;2023-06-26T10:12:01;5.53;;;4.78;;
21661;SDS011;10992;48.170;8.596;2023-06-26T10:14:35;5.47;;;4.70;;
21661;SDS011;10992;48.170;8.596;2023-06-26T10:17:03;4.90;;;4.32;;
21661;SDS011;10992;48.170;8.596;2023-06-26T10:19:34;6.88;;;5.35;;
21661;SDS011;10992;48.170;8.596;2023-06-26T10:22:02;7.68;;;5.10;;
21661;SDS011;10992;48.170;8.596;2023-06-26T10:24:33;6.18;;;5.03;;
21661;SDS011;10992;48.170;8.596;2023-06-26T10:27:04;8.20;;;5.45;;
21661;SDS011;10992;48.170;8.596;2023-06-26T10:29:53;5.60;;;4.60;;
21661;SDS011;10992;48.170;8.596;2023-06-26T10:32:26;5.85;;;4.60;;
21661;SDS011;10992;48.170;8.596;2023-06-26T10:34:55;5.60;;;4.97;;
21661;SDS011;10992;48.170;8.596;2023-06-26T10:37:44;5.57;;;4.97;;
21661;SDS011;10992;48.170;8.596;2023-06-26T10:40:24;5.57;;;5.07;;
21661;SDS011;10992;48.170;8.596;2023-06-26T10:43:05;6.25;;;5.03;;
21661;SDS011;10992;48.170;8.596;2023-06-26T10:45:34;6.95;;;5.63;;
21661;SDS011;10992;48.170;8.596;2023-06-26T10:48:03;6.55;;;5.60;;
21661;SDS011;10992;48.170;8.596;2023-06-26T10:50:31;6.07;;;5.20;;
21661;SDS011;10992;48.170;8.596;2023-06-26T10:55:47;5.88;;;5.03;;
21661;SDS011;10992;48.170;8.596;2023-06-26T11:01:23;6.72;;;4.93;;
21661;SDS011;10992;48.170;8.596;2023-06-26T11:06:30;6.97;;;5.72;;
21661;SDS011;10992;48.170;8.596;2023-06-26T11:09:06;16.58;;;6.55;;
21661;SDS011;10992;48.170;8.596;2023-06-26T11:14:21;5.95;;;5.35;;
21661;SDS011;10992;48.170;8.596;2023-06-26T11:16:49;6.10;;;5.50;;
21661;SDS011;10992;48.170;8.596;2023-06-26T11:19:17;6.07;;;5.13;;
21661;SDS011;10992;48.170;8.596;2023-06-26T11:21:45;7.55;;;6.55;;
21661;SDS011;10992;48.170;8.596;2023-06-26T11:24:13;9.07;;;5.95;;
21661;SDS011;10992;48.170;8.596;2023-06-26T11:26:41;7.53;;;5.30;;
21661;SDS011;10992;48.170;8.596;2023-06-26T11:29:09;6.57;;;5.72;;
21661;SDS011;10992;48.170;8.596;2023-06-26T11:31:37;7.75;;;4.97;;
21661;SDS011;10992;48.170;8.596;2023-06-26T11:34:06;6.72;;;5.65;;
21661;SDS011;10992;48.170;8.596;2023-06-26T11:36:37;8.02;;;5.80;;
21661;SDS011;10992;48.170;8.596;2023-06-26T11:39:05;11.18;;;5.68;;
21661;SDS011;10992;48.170;8.596;2023-06-26T11:41:33;6.45;;;5.78;;
21661;SDS011;10992;48.170;8.596;2023-06-26T11:44:01;7.97;;;5.97;;
21661;SDS011;10992;48.170;8.596;2023-06-26T11:46:30;7.03;;;5.88;;
21661;SDS011;10992;48.170;8.596;2023-06-26T11:48:58;6.75;;;5.93;;
21661;SDS011;10992;48.170;8.596;2023-06-26T11:51:28;7.30;;;6.13;;
21661;SDS011;10992;48.170;8.596;2023-06-26T11:53:55;6.57;;;5.38;;
21661;SDS011;10992;48.170;8.596;2023-06-26T11:56:22;8.52;;;6.05;;
21661;SDS011;10992;48.170;8.596;2023-06-26T11:59:02;7.18;;;5.93;;
21661;SDS011;10992;48.170;8.596;2023-06-26T12:01:37;7.22;;;6.43;;
21661;SDS011;10992;48.170;8.596;2023-06-26T12:04:11;6.03;;;5.32;;
21661;SDS011;10992;48.170;8.596;2023-06-26T12:06:42;7.20;;;6.07;;
21661;SDS011;10992;48.170;8.596;2023-06-26T12:09:12;7.78;;;6.22;;
21661;SDS011;10992;48.170;8.596;2023-06-26T12:11:41;7.90;;;5.22;;
21661;SDS011;10992;48.170;8.596;2023-06-26T12:14:10;8.23;;;5.75;;
21661;SDS011;10992;48.170;8.596;2023-06-26T12:16:38;9.15;;;6.10;;
21661;SDS011;10992;48.170;8.596;2023-06-26T12:19:06;7.28;;;6.10;;
21661;SDS011;10992;48.170;8.596;2023-06-26T12:24:04;6.32;;;5.35;;
21661;SDS011;10992;48.170;8.596;2023-06-26T12:26:33;8.23;;;5.90;;
21661;SDS011;10992;48.170;8.596;2023-06-26T12:29:03;8.35;;;6.10;;
21661;SDS011;10992;48.170;8.596;2023-06-26T12:31:31;6.32;;;5.72;;
21661;SDS011;10992;48.170;8.596;2023-06-26T12:33:59;6.50;;;5.78;;
21661;SDS011;10992;48.170;8.596;2023-06-26T12:36:27;7.53;;;5.90;;
21661;SDS011;10992;48.170;8.596;2023-06-26T12:38:55;7.70;;;5.68;;
21661;SDS011;10992;48.170;8.596;2023-06-26T12:41:25;8.05;;;6.22;;
21661;SDS011;10992;48.170;8.596;2023-06-26T12:43:55;9.50;;;5.88;;
21661;SDS011;10992;48.170;8.596;2023-06-26T12:46:33;8.43;;;6.40;;
21661;SDS011;10992;48.170;8.596;2023-06-26T12:49:01;6.28;;;5.68;;
21661;SDS011;10992;48.170;8.596;2023-06-26T12:51:37;6.70;;;6.10;;
21661;SDS011;10992;48.170;8.596;2023-06-26T12:54:06;6.50;;;5.90;;
21661;SDS011;10992;48.170;8.596;2023-06-26T12:56:34;6.75;;;5.72;;
21661;SDS011;10992;48.170;8.596;2023-06-26T12:59:01;7.05;;;5.57;;
21661;SDS011;10992;48.170;8.596;2023-06-26T13:01:28;7.00;;;6.30;;
21661;SDS011;10992;48.170;8.596;2023-06-26T13:03:55;8.35;;;6.10;;
21661;SDS011;10992;48.170;8.596;2023-06-26T13:06:22;7.70;;;6.25;;
21661;SDS011;10992;48.170;8.596;2023-06-26T13:08:49;7.35;;;5.60;;
21661;SDS011;10992;48.170;8.596;2023-06-26T13:11:16;7.43;;;6.63;;
21661;SDS011;10992;48.170;8.596;2023-06-26T13:13:43;6.47;;;5.78;;
21661;SDS011;10992;48.170;8.596;2023-06-26T13:16:16;8.35;;;6.55;;
21661;SDS011;10992;48.170;8.596;2023-06-26T13:18:45;8.45;;;6.35;;
21661;SDS011;10992;48.170;8.596;2023-06-26T13:21:12;8.52;;;5.93;;
21661;SDS011;10992;48.170;8.596;2023-06-26T13:23:39;7.05;;;6.35;;
21661;SDS011;10992;48.170;8.596;2023-06-26T13:26:06;7.25;;;5.85;;
21661;SDS011;10992;48.170;8.596;2023-06-26T13:28:33;7.50;;;6.38;;
21661;SDS011;10992;48.170;8.596;2023-06-26T13:31:00;9.50;;;5.68;;
21661;SDS011;10992;48.170;8.596;2023-06-26T13:33:27;8.88;;;6.30;;
21661;SDS011;10992;48.170;8.596;2023-06-26T13:35:54;7.70;;;5.82;;
21661;SDS011;10992;48.170;8.596;2023-06-26T13:38:23;7.82;;;6.93;;
21661;SDS011;10992;48.170;8.596;2023-06-26T13:40:51;6.40;;;5.80;;
21661;SDS011;10992;48.170;8.596;2023-06-26T13:43:24;6.65;;;6.05;;
21661;SDS011;10992;48.170;8.596;2023-06-26T13:45:53;7.97;;;5.68;;
21661;SDS011;10992;48.170;8.596;2023-06-26T13:48:20;7.50;;;5.88;;
21661;SDS011;10992;48.170;8.596;2023-06-26T13:50:48;7.38;;;5.97;;
21661;SDS011;10992;48.170;8.596;2023-06-26T13:53:20;7.05;;;6.05;;
21661;SDS011;10992;48.170;8.596;2023-06-26T13:55:47;8.82;;;5.65;;
21661;SDS011;10992;48.170;8.596;2023-06-26T13:58:14;10.77;;;5.97;;
21661;SDS011;10992;48.170;8.596;2023-06-26T14:00:41;6.63;;;5.35;;
21661;SDS011;10992;48.170;8.596;2023-06-26T14:03:11;6.97;;;5.50;;
21661;SDS011;10992;48.170;8.596;2023-06-26T14:05:38;7.35;;;5.45;;
21661;SDS011;10992;48.170;8.596;2023-06-26T14:08:08;5.82;;;5.25;;
21661;SDS011;10992;48.170;8.596;2023-06-26T14:10:35;7.28;;;5.30;;
21661;SDS011;10992;48.170;8.596;2023-06-26T14:13:03;7.50;;;5.88;;
21661;SDS011;10992;48.170;8.596;2023-06-26T14:15:30;8.07;;;6.22;;
21661;SDS011;10992;48.170;8.596;2023-06-26T14:17:59;5.78;;;4.75;;
21661;SDS011;10992;48.170;8.596;2023-06-26T14:20:26;6.93;;;5.97;;
21661;SDS011;10992;48.170;8.596;2023-06-26T14:22:54;6.65;;;5.68;;
21661;SDS011;10992;48.170;8.596;2023-06-26T14:25:21;8.90;;;5.40;;
21661;SDS011;10992;48.170;8.596;2023-06-26T14:27:49;7.93;;;5.90;;
21661;SDS011;10992;48.170;8.596;2023-06-26T14:30:16;7.70;;;5.30;;
21661;SDS011;10992;48.170;8.596;2023-06-26T14:32:43;8.13;;;6.35;;
21661;SDS011;10992;48.170;8.596;2023-06-26T14:35:10;6.47;;;5.80;;
21661;SDS011;10992;48.170;8.596;2023-06-26T14:37:37;6.80;;;5.63;;
21661;SDS011;10992;48.170;8.596;2023-06-26T14:40:06;9.02;;;5.43;;
21661;SDS011;10992;48.170;8.596;2023-06-26T14:42:34;6.60;;;5.20;;
21661;SDS011;10992;48.170;8.596;2023-06-26T14:45:02;7.43;;;5.72;;
21661;SDS011;10992;48.170;8.596;2023-06-26T14:47:30;7.07;;;5.22;;
21661;SDS011;10992;48.170;8.596;2023-06-26T14:49:57;7.40;;;5.20;;
21661;SDS011;10992;48.170;8.596;2023-06-26T14:52:25;6.38;;;5.03;;
21661;SDS011;10992;48.170;8.596;2023-06-26T14:54:51;5.97;;;5.38;;
21661;SDS011;10992;48.170;8.596;2023-06-26T14:57:19;10.20;;;5.70;;
21661;SDS011;10992;48.170;8.596;2023-06-26T14:59:46;6.18;;;4.82;;
21661;SDS011;10992;48.170;8.596;2023-06-26T15:02:13;6.63;;;5.38;;
21661;SDS011;10992;48.170;8.596;2023-06-26T15:04:40;7.70;;;5.05;;
21661;SDS011;10992;48.170;8.596;2023-06-26T15:07:07;8.00;;;5.47;;
21661;SDS011;10992;48.170;8.596;2023-06-26T15:09:34;7.45;;;4.88;;
21661;SDS011;10992;48.170;8.596;2023-06-26T15:12:01;8.18;;;5.13;;